Time;durP1;ratioP1;P1;durP2;ratioP2;P2;SDS_P1;SDS_P2;PMS_P1;PMS_P2;Temp;Humidity;BMP_temperature;BMP_pressure;BME280_temperature;BME280_humidity;BME280_pressure;Samples;Min_cycle;Max_cycle;Signal;HPM_P1;HPM_P2
2021/09/13 00:01:00;;;;;;;2.78;1.40;;;19.30;66.80;;;;;;4948388;28;20034;-88
2021/09/13 00:03:26;;;;;;;1.35;1.25;;;19.30;66.80;;;;;;4940914;28;20027;-87
2021/09/13 00:05:52;;;;;;;1.85;1.48;;;19.30;66.80;;;;;;4951432;28;20041;-87
2021/09/13 00:08:18;;;;;;;1.45;1.35;;;19.30;66.90;;;;;;4942880;28;20022;-87
2021/09/13 00:10:46;;;;;;;2.50;1.60;;;19.20;66.80;;;;;;4935453;28;20049;-88
2021/09/13 00:13:13;;;;;;;2.33;1.27;;;19.20;66.90;;;;;;4950594;28;20043;-88
2021/09/13 00:15:39;;;;;;;1.15;1.05;;;19.20;66.90;;;;;;4959280;28;20026;-87
2021/09/13 00:18:05;;;;;;;1.65;1.30;;;19.20;66.90;;;;;;4927085;28;20491;-87
2021/09/13 00:20:31;;;;;;;1.75;1.45;;;19.10;66.90;;;;;;4941959;28;20027;-88
2021/09/13 00:22:57;;;;;;;1.95;1.50;;;19.10;66.90;;;;;;4942834;28;20118;-87
2021/09/13 00:25:24;;;;;;;1.40;1.30;;;19.10;66.90;;;;;;4942086;28;20166;-86
2021/09/13 00:27:53;;;;;;;2.53;1.55;;;19.10;66.90;;;;;;4941066;28;20468;-87
2021/09/13 00:30:19;;;;;;;1.52;1.40;;;19.10;67.00;;;;;;4924531;28;20062;-87
2021/09/13 00:32:46;;;;;;;1.40;1.30;;;19.00;66.90;;;;;;4942511;28;20094;-87
2021/09/13 00:35:13;;;;;;;2.20;1.35;;;19.00;67.00;;;;;;4958414;28;20045;-87
2021/09/13 00:37:40;;;;;;;1.98;1.35;;;19.00;67.00;;;;;;4940340;28;20027;-87
2021/09/13 00:40:07;;;;;;;1.65;1.42;;;18.90;67.00;;;;;;4950195;28;20035;-88
2021/09/13 00:42:33;;;;;;;1.58;1.40;;;18.90;67.00;;;;;;4975626;28;20027;-88
2021/09/13 00:45:01;;;;;;;2.50;1.50;;;18.90;67.00;;;;;;4958395;28;20022;-88
2021/09/13 00:47:27;;;;;;;1.70;1.60;;;18.90;67.00;;;;;;4942517;28;20082;-87
2021/09/13 00:49:52;;;;;;;2.40;1.60;;;18.90;67.10;;;;;;4957510;28;20034;-87
2021/09/13 00:52:19;;;;;;;1.45;1.30;;;18.80;67.00;;;;;;4964765;28;20078;-87
2021/09/13 00:54:46;;;;;;;3.08;1.70;;;18.80;67.10;;;;;;4950462;28;20038;-87
2021/09/13 00:57:13;;;;;;;1.58;1.48;;;18.80;67.10;;;;;;4936336;29;20031;-87
2021/09/13 00:59:40;;;;;;;2.28;1.70;;;18.80;67.10;;;;;;4954605;28;20027;-88
2021/09/13 01:02:06;;;;;;;2.10;1.40;;;18.80;67.10;;;;;;4972061;28;20030;-88
2021/09/13 01:04:32;;;;;;;2.15;1.42;;;18.70;67.10;;;;;;4925839;28;20038;-88
2021/09/13 01:06:58;;;;;;;1.60;1.50;;;18.70;67.20;;;;;;4937613;29;20070;-87
2021/09/13 01:09:24;;;;;;;2.25;1.35;;;18.70;67.10;;;;;;4937833;29;20023;-88
2021/09/13 01:11:50;;;;;;;1.58;1.40;;;18.70;67.20;;;;;;4934244;28;20035;-88
2021/09/13 01:14:17;;;;;;;1.50;1.40;;;18.60;67.10;;;;;;4957953;28;20490;-88
2021/09/13 01:16:43;;;;;;;1.83;1.63;;;18.60;67.20;;;;;;4942395;28;20073;-88
2021/09/13 01:19:09;;;;;;;2.38;1.70;;;18.60;67.20;;;;;;4926978;28;20063;-88
2021/09/13 01:21:40;;;;;;;2.55;1.60;;;18.60;67.20;;;;;;4942346;28;20026;-88
2021/09/13 01:24:06;;;;;;;1.52;1.42;;;18.60;67.20;;;;;;4974840;28;20034;-88
2021/09/13 01:26:33;;;;;;;1.50;1.40;;;18.60;67.20;;;;;;4958711;28;20030;-87
2021/09/13 01:28:59;;;;;;;1.55;1.42;;;18.50;67.20;;;;;;4942894;28;20026;-88
2021/09/13 01:31:31;;;;;;;1.65;1.55;;;18.50;67.20;;;;;;4942395;28;20121;-89
2021/09/13 01:33:57;;;;;;;1.92;1.73;;;18.50;67.30;;;;;;4941733;28;20066;-88
2021/09/13 01:36:28;;;;;;;2.28;1.50;;;18.50;67.30;;;;;;4935019;28;20017;-87
2021/09/13 01:38:55;;;;;;;2.00;1.75;;;18.50;67.30;;;;;;4942201;28;20054;-87
2021/09/13 01:41:21;;;;;;;2.15;1.55;;;18.40;67.90;;;;;;4925777;28;20039;-88
2021/09/13 01:43:49;;;;;;;1.67;1.58;;;18.40;67.30;;;;;;4927102;28;20035;-88
2021/09/13 01:46:15;;;;;;;2.08;1.60;;;18.40;67.30;;;;;;4957239;28;20085;-88
2021/09/13 01:48:50;;;;;;;3.05;1.90;;;18.30;67.30;;;;;;4943180;28;20545;-88
2021/09/13 01:51:16;;;;;;;2.22;1.80;;;18.30;67.30;;;;;;4923170;28;20039;-87
2021/09/13 01:53:42;;;;;;;1.60;1.50;;;18.30;67.30;;;;;;4941780;28;20035;-88
2021/09/13 01:56:08;;;;;;;2.22;1.88;;;18.30;67.40;;;;;;4910481;28;20058;-88
2021/09/13 01:58:34;;;;;;;2.15;1.65;;;18.30;67.40;;;;;;4955382;28;20073;-88
2021/09/13 02:01:01;;;;;;;1.65;1.55;;;18.30;67.40;;;;;;4941081;28;20081;-88
2021/09/13 02:03:32;;;;;;;1.73;1.48;;;18.20;67.40;;;;;;4957426;28;20470;-88
2021/09/13 02:05:58;;;;;;;2.33;1.98;;;18.20;67.40;;;;;;4926251;28;20154;-88
2021/09/13 02:08:27;;;;;;;1.70;1.60;;;18.20;67.40;;;;;;4926425;28;20482;-87
2021/09/13 02:10:52;;;;;;;2.10;1.63;;;18.20;67.50;;;;;;4940837;28;20066;-87
2021/09/13 02:13:18;;;;;;;1.67;1.50;;;18.20;67.40;;;;;;4964488;28;20117;-87
2021/09/13 02:15:44;;;;;;;2.28;1.70;;;18.10;67.40;;;;;;4965911;28;20039;-87
2021/09/13 02:18:15;;;;;;;1.90;1.73;;;18.10;67.40;;;;;;4933539;28;20098;-87
2021/09/13 02:20:48;;;;;;;2.10;1.90;;;18.10;67.40;;;;;;4947496;28;20035;-87
2021/09/13 02:23:14;;;;;;;2.33;1.88;;;18.10;67.50;;;;;;4979231;28;20122;-87
2021/09/13 02:25:40;;;;;;;2.08;1.80;;;18.10;67.50;;;;;;4928572;28;20479;-87
2021/09/13 02:28:08;;;;;;;2.63;1.92;;;18.00;67.50;;;;;;4941747;28;20026;-87
2021/09/13 02:30:35;;;;;;;2.45;2.00;;;18.10;67.50;;;;;;4950244;28;20059;-87
2021/09/13 02:33:01;;;;;;;2.03;1.80;;;18.00;67.50;;;;;;4925813;28;20454;-87
2021/09/13 02:35:29;;;;;;;2.03;1.67;;;18.00;67.50;;;;;;4941555;28;20109;-87
2021/09/13 02:37:55;;;;;;;2.35;2.00;;;18.00;67.60;;;;;;4956056;28;20436;-87
2021/09/13 02:40:21;;;;;;;1.90;1.70;;;17.90;67.50;;;;;;4932740;28;20025;-86
2021/09/13 02:42:49;;;;;;;2.88;2.00;;;17.90;67.60;;;;;;4948530;29;20118;-87
2021/09/13 02:45:16;;;;;;;2.38;2.08;;;17.90;67.60;;;;;;4924233;28;20038;-87
2021/09/13 02:47:42;;;;;;;2.60;2.17;;;17.90;67.60;;;;;;4941654;28;20026;-87
2021/09/13 02:50:11;;;;;;;2.70;2.10;;;17.90;67.70;;;;;;4931706;28;20039;-88
2021/09/13 02:52:39;;;;;;;3.08;2.08;;;17.90;67.70;;;;;;4940875;28;20035;-87
2021/09/13 02:55:06;;;;;;;2.85;1.73;;;17.90;67.70;;;;;;4940726;28;20060;-87
2021/09/13 02:57:32;;;;;;;2.45;2.15;;;17.80;67.60;;;;;;4940671;28;20039;-87
2021/09/13 02:59:58;;;;;;;2.67;2.10;;;17.80;67.60;;;;;;4941115;28;20783;-88
2021/09/13 03:02:24;;;;;;;3.17;1.80;;;17.80;67.60;;;;;;4943732;28;20042;-87
2021/09/13 03:04:50;;;;;;;2.28;1.98;;;17.80;67.70;;;;;;4938280;29;20035;-88
2021/09/13 03:07:16;;;;;;;2.38;2.00;;;17.80;67.70;;;;;;4922579;28;20034;-87
2021/09/13 03:09:43;;;;;;;2.30;2.00;;;17.80;67.70;;;;;;4925143;28;20027;-88
2021/09/13 03:12:09;;;;;;;2.33;2.13;;;17.70;67.60;;;;;;4955554;28;20030;-88
2021/09/13 03:14:38;;;;;;;2.65;2.28;;;17.70;67.70;;;;;;4943385;28;20775;-88
2021/09/13 03:17:04;;;;;;;1.90;1.70;;;17.70;67.70;;;;;;4924700;28;20031;-88
2021/09/13 03:19:30;;;;;;;2.55;2.10;;;17.70;67.70;;;;;;4928947;28;20031;-88
2021/09/13 03:21:56;;;;;;;2.70;2.03;;;17.60;67.70;;;;;;4929072;28;20027;-88
2021/09/13 03:24:22;;;;;;;2.80;2.20;;;17.60;67.70;;;;;;4944597;28;20063;-88
2021/09/13 03:26:48;;;;;;;2.53;2.20;;;17.60;67.70;;;;;;4957697;28;20138;-88
2021/09/13 03:29:16;;;;;;;2.25;2.05;;;17.60;67.80;;;;;;4944755;28;20023;-87
2021/09/13 03:31:42;;;;;;;2.25;2.03;;;17.60;67.80;;;;;;4943143;28;20817;-88
2021/09/13 03:34:09;;;;;;;2.40;2.08;;;17.60;67.80;;;;;;4941458;28;20081;-88
2021/09/13 03:36:38;;;;;;;3.58;2.50;;;17.50;67.80;;;;;;4943673;28;20471;-87
2021/09/13 03:39:05;;;;;;;2.25;2.00;;;17.50;67.80;;;;;;4912848;28;20051;-88
2021/09/13 03:41:31;;;;;;;2.35;2.08;;;17.50;67.80;;;;;;4936807;29;20509;-87
2021/09/13 03:43:57;;;;;;;2.75;2.03;;;17.50;67.80;;;;;;4927692;28;20031;-87
2021/09/13 03:46:23;;;;;;;2.58;2.10;;;17.50;67.80;;;;;;4925443;29;20035;-88
2021/09/13 03:49:14;;;;;;;2.00;1.80;;;17.40;67.80;;;;;;4954235;28;20062;-88
2021/09/13 03:51:40;;;;;;;2.65;2.10;;;17.40;67.80;;;;;;4940895;28;20467;-88
2021/09/13 03:54:06;;;;;;;2.30;1.90;;;17.40;67.90;;;;;;4927134;28;20068;-88
2021/09/13 03:56:32;;;;;;;2.38;1.80;;;17.40;67.90;;;;;;4942097;28;20027;-88
2021/09/13 03:58:57;;;;;;;2.35;2.03;;;17.40;67.90;;;;;;4943215;28;20078;-87
2021/09/13 04:01:24;;;;;;;3.08;2.33;;;17.40;67.90;;;;;;4942592;28;20169;-87
2021/09/13 04:03:51;;;;;;;2.70;2.00;;;17.30;67.90;;;;;;4958974;28;20117;-88
2021/09/13 04:06:38;;;;;;;2.33;2.03;;;17.40;68.00;;;;;;4940967;28;20035;-88
2021/09/13 04:12:23;;;;;;;2.25;1.92;;;17.30;67.90;;;;;;4945681;28;20545;-86
2021/09/13 04:15:06;;;;;;;2.10;1.90;;;17.30;67.90;;;;;;4937976;28;20118;-87
2021/09/13 04:17:55;;;;;;;2.22;2.00;;;17.30;68.00;;;;;;4934067;28;20134;-87
2021/09/13 04:20:41;;;;;;;2.20;1.80;;;17.30;68.00;;;;;;4907308;28;20511;-82
2021/09/13 04:23:30;;;;;;;2.35;1.80;;;17.20;68.00;;;;;;4946466;28;20038;-83
2021/09/13 04:26:15;;;;;;;2.60;2.15;;;17.20;68.00;;;;;;4956174;28;20042;-82
2021/09/13 04:29:04;;;;;;;2.10;1.80;;;17.20;68.10;;;;;;4939703;28;20487;-84
2021/09/13 04:31:50;;;;;;;2.28;1.80;;;17.20;68.10;;;;;;4935018;28;20081;-83
2021/09/13 04:34:54;;;;;;;2.35;1.75;;;17.10;68.10;;;;;;4939432;28;20088;-82
2021/09/13 04:37:37;;;;;;;2.10;1.73;;;17.10;68.10;;;;;;4941476;28;20357;-82
2021/09/13 04:40:22;;;;;;;2.10;1.77;;;17.10;68.20;;;;;;4959258;28;20109;-81
2021/09/13 04:42:53;;;;;;;2.22;2.03;;;17.10;68.20;;;;;;4956606;28;20038;-82
2021/09/13 04:45:39;;;;;;;3.08;2.00;;;17.10;68.20;;;;;;4930383;29;20494;-84
2021/09/13 04:48:38;;;;;;;3.10;1.90;;;17.10;68.20;;;;;;4915818;28;20035;-82
2021/09/13 04:51:22;;;;;;;1.92;1.67;;;17.10;68.30;;;;;;4952683;28;20053;-81
2021/09/13 04:54:08;;;;;;;2.72;2.20;;;17.10;68.30;;;;;;4939619;28;20043;-81
2021/09/13 04:56:34;;;;;;;2.25;1.75;;;17.00;68.30;;;;;;4926097;28;20145;-82
2021/09/13 04:59:00;;;;;;;2.22;1.67;;;17.00;68.30;;;;;;4945717;28;20118;-85
2021/09/13 05:01:27;;;;;;;2.00;1.80;;;17.00;68.40;;;;;;4943143;28;20042;-88
2021/09/13 05:03:53;;;;;;;1.70;1.60;;;17.00;68.40;;;;;;4920005;29;20047;-88
2021/09/13 05:06:20;;;;;;;2.42;2.03;;;17.00;68.40;;;;;;4941036;28;20495;-81
2021/09/13 05:08:45;;;;;;;2.28;1.77;;;17.00;68.40;;;;;;4957676;28;20031;-81
2021/09/13 05:11:11;;;;;;;2.17;1.95;;;17.00;68.40;;;;;;4940952;28;20547;-81
2021/09/13 05:13:38;;;;;;;1.92;1.65;;;17.00;68.50;;;;;;4957086;28;20055;-81
2021/09/13 05:16:06;;;;;;;1.90;1.80;;;17.00;68.50;;;;;;4926513;28;20053;-82
2021/09/13 05:18:36;;;;;;;2.50;1.90;;;17.00;68.50;;;;;;4949844;28;20037;-81
2021/09/13 05:21:03;;;;;;;1.48;1.38;;;17.00;68.50;;;;;;4925235;28;20121;-82
2021/09/13 05:23:31;;;;;;;2.22;1.80;;;17.00;68.50;;;;;;4941447;28;20043;-82
2021/09/13 05:25:57;;;;;;;1.80;1.63;;;17.00;68.50;;;;;;4956874;28;20042;-82
2021/09/13 05:28:23;;;;;;;2.25;1.90;;;16.90;68.50;;;;;;4957046;28;20399;-81
2021/09/13 05:30:49;;;;;;;1.75;1.50;;;16.90;68.50;;;;;;4940648;28;20031;-82
2021/09/13 05:33:17;;;;;;;1.83;1.63;;;16.90;68.50;;;;;;4941257;28;20497;-81
2021/09/13 05:35:43;;;;;;;2.22;1.73;;;16.90;68.60;;;;;;4956610;28;20023;-82
2021/09/13 05:38:12;;;;;;;2.50;2.00;;;16.90;69.20;;;;;;4948245;28;20050;-82
2021/09/13 05:40:40;;;;;;;2.08;1.70;;;16.90;68.50;;;;;;4917306;28;20034;-82
2021/09/13 05:43:08;;;;;;;2.35;1.50;;;16.90;68.50;;;;;;4948402;28;20668;-80
2021/09/13 05:45:35;;;;;;;1.88;1.73;;;16.90;68.60;;;;;;4940576;28;20039;-82
2021/09/13 05:48:03;;;;;;;1.83;1.63;;;16.90;68.60;;;;;;4940548;28;20467;-82
2021/09/13 05:50:34;;;;;;;1.70;1.60;;;16.90;68.60;;;;;;4945638;28;20175;-82
2021/09/13 05:53:01;;;;;;;1.95;1.77;;;16.90;68.60;;;;;;4931869;28;20094;-82
2021/09/13 05:55:28;;;;;;;1.67;1.58;;;16.90;68.60;;;;;;4951683;29;20024;-82
2021/09/13 05:57:55;;;;;;;1.60;1.50;;;16.90;68.60;;;;;;4953857;28;20459;-83
2021/09/13 06:00:21;;;;;;;2.00;1.80;;;16.90;68.70;;;;;;4941071;28;20031;-82
2021/09/13 06:02:51;;;;;;;2.95;1.85;;;16.90;68.70;;;;;;4956284;28;20035;-81
2021/09/13 06:05:23;;;;;;;2.67;1.90;;;16.80;68.60;;;;;;4941678;28;20027;-81
2021/09/13 06:07:51;;;;;;;1.70;1.60;;;16.80;68.60;;;;;;4937561;29;20042;-82
2021/09/13 06:10:20;;;;;;;2.33;1.88;;;16.90;68.70;;;;;;4971490;28;20494;-82
2021/09/13 06:12:46;;;;;;;2.30;1.90;;;16.80;68.70;;;;;;4921437;29;20048;-81
2021/09/13 06:15:12;;;;;;;2.13;1.80;;;16.80;68.80;;;;;;4932513;28;20035;-81
2021/09/13 06:17:44;;;;;;;1.65;1.55;;;16.80;68.80;;;;;;4941441;28;20065;-82
2021/09/13 06:20:13;;;;;;;1.80;1.67;;;16.80;68.80;;;;;;4947771;28;20023;-82
2021/09/13 06:22:39;;;;;;;1.98;1.65;;;16.80;68.80;;;;;;4939957;28;20038;-82
2021/09/13 06:25:10;;;;;;;2.10;1.67;;;16.80;68.80;;;;;;4947883;28;20030;-81
2021/09/13 06:27:39;;;;;;;1.65;1.55;;;16.80;68.80;;;;;;4940003;28;20054;-83
2021/09/13 06:30:05;;;;;;;1.85;1.65;;;16.80;68.80;;;;;;4924422;28;20054;-83
2021/09/13 06:32:31;;;;;;;1.67;1.48;;;16.80;68.90;;;;;;4940108;28;20035;-83
2021/09/13 06:35:05;;;;;;;2.08;1.77;;;16.80;68.90;;;;;;4925422;28;20507;-88
2021/09/13 06:37:44;;;;;;;2.13;1.80;;;16.80;69.00;;;;;;4955462;28;20046;-87
2021/09/13 06:40:11;;;;;;;1.90;1.58;;;16.80;68.90;;;;;;4941436;28;20061;-86
2021/09/13 06:42:37;;;;;;;1.88;1.58;;;16.80;68.90;;;;;;4941233;28;20450;-87
2021/09/13 06:45:19;;;;;;;2.08;1.60;;;16.80;69.00;;;;;;4941864;28;20035;-86
2021/09/13 06:47:46;;;;;;;2.08;1.73;;;16.80;69.00;;;;;;4957077;28;20042;-87
2021/09/13 06:50:27;;;;;;;1.90;1.67;;;16.80;69.00;;;;;;4957621;29;20019;-87
2021/09/13 06:52:55;;;;;;;1.70;1.60;;;16.80;69.10;;;;;;4949668;28;20090;-87
2021/09/13 06:55:22;;;;;;;2.30;1.80;;;16.80;69.00;;;;;;4950549;29;20040;-87
2021/09/13 06:57:49;;;;;;;2.33;1.80;;;16.80;69.10;;;;;;4944726;28;20062;-86
2021/09/13 07:00:17;;;;;;;2.05;1.70;;;16.80;69.10;;;;;;4937424;28;20039;-87
2021/09/13 07:02:57;;;;;;;1.85;1.67;;;16.80;69.10;;;;;;5102523;27;20135;-87
2021/09/13 07:05:23;;;;;;;2.33;1.60;;;16.80;69.10;;;;;;5064200;28;20067;-87
2021/09/13 07:08:00;;;;;;;2.05;1.70;;;16.80;69.10;;;;;;5047422;28;20029;-87
2021/09/13 07:10:26;;;;;;;2.78;1.80;;;16.80;69.30;;;;;;5048502;28;20025;-86
2021/09/13 07:12:53;;;;;;;2.80;1.88;;;16.80;69.20;;;;;;5052833;28;20037;-87
2021/09/13 07:15:19;;;;;;;1.67;1.55;;;16.80;69.20;;;;;;5054762;28;20082;-88
2021/09/13 07:17:45;;;;;;;2.17;1.80;;;16.90;69.30;;;;;;5065467;28;20066;-88
2021/09/13 07:20:13;;;;;;;2.33;1.60;;;16.80;69.30;;;;;;5073068;28;20040;-88
2021/09/13 07:22:39;;;;;;;2.33;1.58;;;16.90;69.40;;;;;;5044887;28;20025;-88
2021/09/13 07:25:05;;;;;;;2.45;1.80;;;16.90;69.40;;;;;;5049715;28;20040;-88
2021/09/13 07:27:31;;;;;;;2.65;1.98;;;16.90;69.30;;;;;;5061493;28;20118;-87
2021/09/13 07:29:59;;;;;;;1.65;1.50;;;16.90;69.40;;;;;;5051761;28;20048;-88
2021/09/13 07:32:26;;;;;;;3.75;1.80;;;16.90;69.40;;;;;;5060788;28;20379;-88
2021/09/13 07:34:52;;;;;;;2.45;1.80;;;16.90;69.50;;;;;;5038789;28;20032;-86
2021/09/13 07:37:17;;;;;;;2.10;1.77;;;16.90;69.50;;;;;;5058186;28;20035;-87
2021/09/13 07:39:43;;;;;;;2.45;1.83;;;16.90;69.50;;;;;;5044125;28;20103;-87
2021/09/13 07:42:09;;;;;;;2.10;1.70;;;16.90;69.50;;;;;;5045143;28;20041;-88
2021/09/13 07:44:35;;;;;;;3.50;1.88;;;16.90;69.50;;;;;;5049809;28;20044;-88
2021/09/13 07:47:01;;;;;;;3.13;2.08;;;16.90;69.60;;;;;;5072301;28;20021;-89
2021/09/13 07:49:27;;;;;;;2.38;1.90;;;17.00;69.60;;;;;;5064179;28;20421;-89
2021/09/13 07:51:53;;;;;;;2.63;1.80;;;17.00;69.60;;;;;;5047690;28;20033;-88
2021/09/13 07:54:18;;;;;;;2.15;1.80;;;17.00;69.60;;;;;;5051877;28;20029;-88
2021/09/13 07:56:44;;;;;;;1.65;1.50;;;17.00;70.30;;;;;;5026439;28;20145;-89
2021/09/13 07:59:10;;;;;;;2.60;2.00;;;17.00;69.70;;;;;;5045633;28;20036;-89
2021/09/13 08:01:36;;;;;;;1.92;1.73;;;17.00;69.80;;;;;;5048261;28;20037;-87
2021/09/13 08:04:02;;;;;;;3.22;1.95;;;17.00;69.90;;;;;;5062557;28;20036;-87
2021/09/13 08:06:28;;;;;;;3.35;2.08;;;17.10;70.10;;;;;;5063825;28;20029;-87
2021/09/13 08:08:55;;;;;;;2.90;2.03;;;17.10;70.10;;;;;;5051460;28;20097;-88
2021/09/13 08:11:21;;;;;;;4.18;2.15;;;17.10;70.20;;;;;;5068376;28;20063;-88
2021/09/13 08:13:47;;;;;;;2.92;2.13;;;17.10;70.20;;;;;;5049231;28;20082;-87
2021/09/13 08:16:13;;;;;;;3.03;2.15;;;17.10;70.20;;;;;;5051072;28;20119;-88
2021/09/13 08:18:41;;;;;;;2.70;2.00;;;17.20;71.00;;;;;;5029811;28;20029;-88
2021/09/13 08:21:12;;;;;;;2.47;2.00;;;17.20;70.30;;;;;;5030507;28;20033;-87
2021/09/13 08:23:39;;;;;;;3.35;2.15;;;17.20;70.40;;;;;;5038415;28;20033;-87
2021/09/13 08:26:07;;;;;;;2.50;2.00;;;17.20;70.50;;;;;;5062351;28;20025;-87
2021/09/13 08:28:36;;;;;;;3.53;2.00;;;17.30;70.70;;;;;;5038709;28;20052;-87
2021/09/13 08:31:02;;;;;;;4.88;2.60;;;17.30;70.70;;;;;;5051189;28;20032;-87
2021/09/13 08:33:28;;;;;;;3.30;2.40;;;17.30;70.80;;;;;;5075855;28;20024;-86
2021/09/13 08:35:54;;;;;;;2.30;1.90;;;17.30;70.80;;;;;;5032961;28;20031;-86
2021/09/13 08:38:21;;;;;;;2.67;1.95;;;17.40;71.00;;;;;;5049445;28;20028;-85
2021/09/13 08:40:47;;;;;;;3.13;2.10;;;17.40;71.00;;;;;;5030511;28;20024;-82
2021/09/13 08:43:13;;;;;;;3.70;2.00;;;17.40;71.00;;;;;;5051694;28;20025;-81
2021/09/13 08:46:06;;;;;;;3.35;2.10;;;17.50;71.10;;;;;;5032688;28;20029;-83
2021/09/13 08:48:38;;;;;;;2.75;1.77;;;17.50;71.00;;;;;;5035825;28;20064;-82
2021/09/13 08:53:54;;;;;;;3.28;2.20;;;17.60;70.90;;;;;;5057156;28;20078;-82
2021/09/13 08:56:24;;;;;;;2.83;2.00;;;17.60;70.90;;;;;;5049528;28;20404;-82
2021/09/13 08:58:50;;;;;;;2.30;2.10;;;17.70;70.70;;;;;;5048259;28;20032;-83
2021/09/13 09:01:17;;;;;;;3.17;1.85;;;17.70;70.60;;;;;;5053321;28;20048;-82
2021/09/13 09:03:44;;;;;;;2.63;1.95;;;17.80;70.70;;;;;;5044571;28;20025;-83
2021/09/13 09:06:29;;;;;;;3.35;1.80;;;17.80;70.60;;;;;;5050178;28;20063;-83
2021/09/13 09:09:06;;;;;;;3.20;1.52;;;17.90;70.70;;;;;;5044664;28;20481;-83
2021/09/13 09:11:50;;;;;;;2.50;1.80;;;17.90;70.50;;;;;;5047872;28;20059;-83
2021/09/13 09:14:31;;;;;;;2.93;1.67;;;18.00;70.60;;;;;;5047194;28;20031;-82
2021/09/13 09:17:00;;;;;;;2.55;1.77;;;18.00;70.50;;;;;;5028124;28;20039;-83
2021/09/13 09:19:26;;;;;;;2.33;1.80;;;18.10;70.40;;;;;;5045997;28;20049;-82
2021/09/13 09:21:52;;;;;;;2.75;1.80;;;18.10;70.30;;;;;;5031370;28;20036;-82
2021/09/13 09:24:18;;;;;;;2.65;1.60;;;18.10;70.30;;;;;;5038563;28;20086;-82
2021/09/13 09:27:03;;;;;;;3.00;1.83;;;18.20;70.30;;;;;;5038975;28;20434;-83
2021/09/13 09:29:31;;;;;;;2.70;1.83;;;18.30;70.40;;;;;;5035719;28;20028;-83
2021/09/13 09:31:58;;;;;;;2.15;1.52;;;18.30;70.10;;;;;;5043618;28;20036;-84
2021/09/13 09:34:25;;;;;;;1.98;1.55;;;18.40;70.10;;;;;;5018997;28;20032;-82
2021/09/13 09:36:57;;;;;;;1.88;1.45;;;18.40;70.10;;;;;;5029996;28;20033;-83
2021/09/13 09:39:31;;;;;;;2.78;2.00;;;18.50;70.10;;;;;;5047575;28;20411;-83
2021/09/13 09:41:58;;;;;;;2.00;1.60;;;18.50;70.00;;;;;;5064642;28;20127;-83
2021/09/13 09:44:25;;;;;;;1.63;1.33;;;18.60;69.90;;;;;;5039283;28;20320;-83
2021/09/13 09:46:55;;;;;;;2.08;1.40;;;18.60;69.90;;;;;;5054834;28;20024;-82
2021/09/13 09:49:22;;;;;;;1.80;1.27;;;18.60;69.90;;;;;;5040479;28;20035;-83
2021/09/13 09:51:55;;;;;;;2.75;1.75;;;18.70;69.90;;;;;;5030300;28;20115;-83
2021/09/13 09:54:26;;;;;;;1.63;1.25;;;18.80;70.00;;;;;;5011660;28;20151;-82
2021/09/13 09:57:05;;;;;;;2.20;1.50;;;18.80;69.90;;;;;;5027799;28;20452;-83
2021/09/13 09:59:36;;;;;;;1.80;1.40;;;18.80;69.90;;;;;;5031444;28;20384;-83
2021/09/13 10:02:14;;;;;;;2.30;1.50;;;18.90;69.80;;;;;;5029199;28;20067;-83
2021/09/13 10:04:41;;;;;;;2.40;1.40;;;19.00;70.00;;;;;;5039902;28;20037;-83
2021/09/13 10:07:07;;;;;;;3.00;1.65;;;19.00;69.80;;;;;;5023284;28;20017;-83
2021/09/13 10:09:33;;;;;;;1.33;1.15;;;19.00;69.70;;;;;;5040964;28;20099;-83
2021/09/13 10:12:02;;;;;;;1.77;1.25;;;19.10;69.70;;;;;;5013460;28;20044;-83
2021/09/13 10:14:32;;;;;;;1.73;1.40;;;19.10;69.70;;;;;;5016812;28;20040;-83
2021/09/13 10:16:57;;;;;;;1.65;1.30;;;19.20;69.70;;;;;;5043076;28;20021;-83
2021/09/13 10:19:25;;;;;;;1.85;1.23;;;19.20;69.70;;;;;;5017789;28;20063;-83
2021/09/13 10:21:52;;;;;;;1.65;1.30;;;19.30;69.70;;;;;;5018689;28;20029;-82
2021/09/13 10:24:24;;;;;;;1.15;1.08;;;19.30;69.60;;;;;;5034692;28;20662;-83
2021/09/13 10:27:05;;;;;;;1.38;1.13;;;19.40;69.70;;;;;;5026019;28;20086;-83
2021/09/13 10:29:32;;;;;;;1.08;0.98;;;19.40;69.60;;;;;;5033904;28;20017;-86
2021/09/13 10:32:42;;;;;;;2.67;1.40;;;19.50;69.40;;;;;;5018608;28;20061;-96
2021/09/13 10:35:12;;;;;;;1.38;1.10;;;19.50;69.60;;;;;;5029815;28;20028;-92
2021/09/13 10:38:11;;;;;;;1.17;1.02;;;19.60;69.30;;;;;;5038689;28;20082;-94
2021/09/13 10:40:47;;;;;;;1.17;1.08;;;19.70;69.40;;;;;;5011456;28;20040;-88
2021/09/13 10:43:21;;;;;;;1.00;0.90;;;19.80;69.20;;;;;;5049027;28;20120;-89
2021/09/13 10:45:50;;;;;;;1.45;1.30;;;19.80;69.20;;;;;;5051921;28;20025;-87
2021/09/13 10:48:22;;;;;;;1.15;1.05;;;19.90;69.10;;;;;;5032400;28;20036;-85
2021/09/13 10:50:51;;;;;;;1.42;1.00;;;20.00;69.10;;;;;;5024533;28;20032;-93
2021/09/13 10:53:22;;;;;;;1.77;1.10;;;20.10;68.90;;;;;;5026410;28;20025;-89
2021/09/13 10:55:59;;;;;;;1.13;1.00;;;20.20;68.80;;;;;;5040783;28;20097;-89
2021/09/13 10:58:40;;;;;;;1.10;1.00;;;20.20;68.70;;;;;;5015968;28;20064;-88
2021/09/13 11:01:16;;;;;;;1.20;1.10;;;20.30;68.70;;;;;;5035367;28;20124;-89
2021/09/13 11:12:40;;;;;;;1.52;1.10;;;20.50;68.40;;;;;;4962600;29;20050;-96
2021/09/13 11:15:14;;;;;;;0.90;0.90;;;20.60;68.30;;;;;;4937972;28;20039;-92
2021/09/13 11:17:41;;;;;;;1.63;1.10;;;20.70;68.20;;;;;;4963088;28;20117;-89
2021/09/13 11:24:00;;;;;;;0.77;0.77;;;20.90;68.30;;;;;;5071681;28;20100;-94
2021/09/13 11:26:44;;;;;;;1.02;1.00;;;20.90;68.00;;;;;;5030452;28;20036;-89
2021/09/13 11:29:10;;;;;;;1.20;1.10;;;21.00;68.20;;;;;;5030237;28;20034;-85
2021/09/13 11:31:44;;;;;;;1.15;1.00;;;21.00;68.10;;;;;;5046745;28;20031;-87
2021/09/13 11:34:13;;;;;;;0.93;0.80;;;21.10;68.20;;;;;;5041485;28;20033;-86
2021/09/13 11:36:53;;;;;;;1.77;1.00;;;21.10;68.10;;;;;;5035826;28;20544;-87
2021/09/13 11:39:22;;;;;;;0.80;0.80;;;21.20;68.10;;;;;;5039951;28;20040;-88
2021/09/13 11:41:57;;;;;;;1.55;1.00;;;21.30;68.10;;;;;;5012561;28;20090;-87
2021/09/13 11:44:23;;;;;;;1.33;0.98;;;21.30;68.20;;;;;;5057962;28;20064;-85
2021/09/13 11:47:03;;;;;;;1.02;0.90;;;21.40;68.10;;;;;;5046069;28;20101;-86
2021/09/13 11:49:32;;;;;;;0.63;0.60;;;21.40;68.20;;;;;;5043794;28;20056;-84
2021/09/13 11:52:08;;;;;;;0.88;0.80;;;21.50;68.30;;;;;;5025181;28;20098;-79
2021/09/13 11:54:50;;;;;;;1.05;0.88;;;21.60;68.40;;;;;;5049837;28;20028;-86
2021/09/13 11:57:45;;;;;;;1.10;0.80;;;21.60;68.50;;;;;;5067040;28;20464;-87
2021/09/13 12:00:20;;;;;;;0.77;0.77;;;21.70;68.50;;;;;;5048208;28;20029;-85
2021/09/13 12:02:48;;;;;;;1.15;0.90;;;21.70;68.30;;;;;;5035853;28;20052;-85
2021/09/13 12:05:20;;;;;;;0.80;0.80;;;21.80;68.40;;;;;;5039981;28;20488;-84
2021/09/13 12:07:49;;;;;;;1.05;0.80;;;21.80;68.40;;;;;;5046596;28;20067;-86
2021/09/13 12:10:23;;;;;;;0.75;0.75;;;21.90;68.40;;;;;;5022078;28;20086;-85
2021/09/13 12:12:52;;;;;;;0.70;0.70;;;21.90;68.20;;;;;;5049661;28;20041;-85
2021/09/13 12:15:24;;;;;;;0.88;0.88;;;21.90;68.10;;;;;;5048811;28;20047;-83
2021/09/13 12:17:52;;;;;;;1.00;0.65;;;22.00;68.00;;;;;;5028573;28;20060;-81
2021/09/13 12:20:23;;;;;;;0.80;0.80;;;22.10;67.90;;;;;;5052567;28;20064;-81
2021/09/13 12:23:06;;;;;;;1.00;0.80;;;22.00;67.80;;;;;;5048824;28;20032;-80
2021/09/13 12:25:48;;;;;;;1.25;1.00;;;22.10;67.70;;;;;;5036125;28;20123;-81
2021/09/13 12:28:25;;;;;;;1.23;1.00;;;22.20;67.50;;;;;;5044642;28;20405;-81
2021/09/13 12:30:53;;;;;;;1.52;1.00;;;22.20;67.30;;;;;;5047454;28;20032;-81
2021/09/13 12:33:20;;;;;;;0.75;0.70;;;22.20;67.20;;;;;;5056514;28;20252;-81
2021/09/13 12:35:52;;;;;;;0.70;0.70;;;22.20;67.10;;;;;;5056186;28;20060;-80
2021/09/13 12:38:22;;;;;;;0.85;0.85;;;22.30;67.00;;;;;;5036064;28;20033;-81
2021/09/13 12:41:00;;;;;;;0.80;0.80;;;22.30;66.90;;;;;;5056269;28;20048;-81
2021/09/13 12:43:31;;;;;;;1.40;0.93;;;22.30;66.80;;;;;;5047314;28;20040;-81
2021/09/13 12:46:05;;;;;;;0.70;0.70;;;22.40;66.70;;;;;;5046147;28;20085;-82
2021/09/13 12:48:32;;;;;;;0.55;0.55;;;22.40;66.60;;;;;;5044006;28;20831;-82
2021/09/13 12:50:58;;;;;;;1.08;1.00;;;22.40;66.50;;;;;;5063029;28;20024;-81
2021/09/13 12:53:30;;;;;;;0.93;0.88;;;22.40;66.40;;;;;;5073509;28;20461;-82
2021/09/13 12:56:16;;;;;;;1.15;0.88;;;22.50;66.40;;;;;;5047376;28;20043;-81
2021/09/13 12:58:45;;;;;;;2.10;1.00;;;22.50;66.40;;;;;;5032927;28;20127;-80
2021/09/13 13:01:34;;;;;;;1.58;0.93;;;22.50;66.20;;;;;;5035676;28;20083;-81
2021/09/13 13:04:02;;;;;;;1.23;1.10;;;22.50;66.30;;;;;;5031897;28;20044;-80
2021/09/13 13:06:28;;;;;;;0.80;0.80;;;22.50;66.10;;;;;;5061605;28;20044;-81
2021/09/13 13:08:54;;;;;;;1.58;0.90;;;22.60;66.10;;;;;;5027607;28;20036;-81
2021/09/13 13:11:20;;;;;;;1.55;0.95;;;22.60;66.10;;;;;;5053193;28;20029;-80
2021/09/13 13:13:46;;;;;;;1.00;0.90;;;22.60;66.00;;;;;;5034612;28;20036;-81
2021/09/13 13:16:12;;;;;;;0.98;0.85;;;22.60;65.90;;;;;;5055493;28;20028;-81
2021/09/13 13:18:39;;;;;;;2.25;0.90;;;22.60;65.80;;;;;;5030003;28;20028;-81
2021/09/13 13:21:05;;;;;;;0.73;0.73;;;22.60;65.70;;;;;;5035832;28;20037;-81